Time;durP1;ratioP1;P1;durP2;ratioP2;P2;SDS_P1;SDS_P2;PMS_P1;PMS_P2;Temp;Humidity;BMP_temperature;BMP_pressure;BME280_temperature;BME280_humidity;BME280_pressure;Samples;Min_cycle;Max_cycle;Signal;HPM_P1;HPM_P2
2022/08/20 00:01:21;;;;;;;29.50;25.17;;;;;;;24.61;75.39;100006.11;3503912;82;32898;-85
2022/08/20 00:06:23;;;;;;;29.42;25.48;;;;;;;24.58;75.57;100012.06;3494463;82;99147;-85
2022/08/20 00:11:26;;;;;;;28.77;25.68;;;;;;;24.51;75.58;100011.62;3502379;82;32521;-80
2022/08/20 00:16:32;;;;;;;26.05;22.98;;;;;;;24.48;75.77;100014.80;3502586;82;98997;-84
2022/08/20 00:21:34;;;;;;;29.15;24.82;;;;;;;24.45;75.79;100021.38;3500776;82;27257;-85
2022/08/20 00:26:35;;;;;;;28.60;25.57;;;;;;;24.42;76.35;100034.98;3486876;82;99172;-84
2022/08/20 00:31:36;;;;;;;30.25;25.37;;;;;;;24.45;76.46;100058.56;3505800;82;32405;-83
2022/08/20 00:36:37;;;;;;;30.43;25.60;;;;;;;24.44;76.34;100058.42;3508613;82;99154;-85
2022/08/20 00:41:38;;;;;;;28.35;25.15;;;;;;;24.42;76.12;100058.90;3532814;82;32513;-84
2022/08/20 00:46:44;;;;;;;28.00;25.00;;;;;;;24.34;76.43;100053.50;3523528;82;99243;-85
2022/08/20 00:51:53;;;;;;;27.90;24.80;;;;;;;24.24;76.83;100051.24;3533524;82;27455;-85
2022/08/20 00:57:02;;;;;;;28.65;24.07;;;;;;;24.18;77.04;100046.89;3529685;82;99143;-85
2022/08/20 01:02:08;;;;;;;28.67;25.50;;;;;;;24.25;76.82;100048.57;3529434;82;27522;-85
2022/08/20 01:07:10;;;;;;;33.02;26.82;;;;;;;24.17;77.11;100050.95;3511617;82;98904;-85
2022/08/20 01:12:13;;;;;;;31.07;26.50;;;;;;;24.03;77.62;100060.09;3520778;83;33009;-85
2022/08/20 01:17:19;;;;;;;38.33;31.85;;;;;;;23.98;78.09;100064.20;3526973;82;99064;-84
2022/08/20 01:27:49;;;;;;;28.85;25.15;;;;;;;23.88;78.95;100066.28;3524625;81;99183;-85
2022/08/20 01:32:50;;;;;;;36.80;31.55;;;;;;;23.88;79.00;100064.88;3529707;82;32480;-84
2022/08/20 01:37:51;;;;;;;36.40;31.42;;;;;;;23.90;78.97;100068.59;3521616;82;99181;-84
2022/08/20 01:42:53;;;;;;;38.02;32.60;;;;;;;23.88;79.60;100064.06;3526289;83;32458;-85
2022/08/20 01:47:54;;;;;;;30.55;24.95;;;;;;;23.70;80.67;100068.36;3517477;82;99252;-84
2022/08/20 01:53:09;;;;;;;32.05;27.58;;;;;;;23.64;80.92;100065.41;3527435;82;32664;-83
2022/08/20 01:58:10;;;;;;;31.55;28.17;;;;;;;23.67;80.74;100053.23;3515193;82;99333;-84
2022/08/20 02:03:11;;;;;;;30.60;27.13;;;;;;;23.65;80.89;100052.15;3526460;83;33209;-85
2022/08/20 02:08:12;;;;;;;39.50;32.45;;;;;;;23.66;80.79;100049.48;3518779;82;99586;-84
2022/08/20 02:13:15;;;;;;;34.65;27.37;;;;;;;23.66;81.17;100056.51;3530091;81;33147;-84
2022/08/20 02:18:16;;;;;;;28.67;25.55;;;;;;;23.62;81.33;100053.08;3522175;82;98829;-84
2022/08/20 02:23:18;;;;;;;30.45;25.72;;;;;;;23.70;80.98;100052.27;3521864;83;33113;-84
2022/08/20 02:28:20;;;;;;;30.57;25.90;;;;;;;23.69;81.17;100047.91;3518735;82;98874;-85
2022/08/20 02:33:23;;;;;;;32.90;28.62;;;;;;;23.76;80.97;100046.14;3535394;83;32550;-85
2022/08/20 02:38:24;;;;;;;27.67;24.67;;;;;;;23.77;80.89;100042.08;3508554;83;99144;-85
2022/08/20 02:43:25;;;;;;;30.65;26.25;;;;;;;23.79;80.93;100043.80;3512748;82;32362;-85
2022/08/20 02:48:27;;;;;;;27.60;24.60;;;;;;;23.81;80.77;100029.28;3508034;82;98935;-84
2022/08/20 02:53:33;;;;;;;29.05;25.85;;;;;;;23.78;80.77;100028.20;3506934;81;33056;-85
2022/08/20 02:58:34;;;;;;;;;;;;;;;23.72;80.90;100037.13;3496997;82;98955;-85
2022/08/20 03:03:35;;;;;;;29.65;26.42;;;;;;;23.69;81.49;100021.83;3484558;82;32656;-84
2022/08/20 03:08:37;;;;;;;31.93;25.17;;;;;;;23.62;80.95;100010.33;3497965;83;99030;-84
2022/08/20 03:13:38;;;;;;;30.85;25.27;;;;;;;23.65;81.08;100012.81;3506754;83;27608;-85
2022/08/20 03:18:43;;;;;;;29.92;26.45;;;;;;;23.65;81.19;100007.95;3502018;82;99129;-84
2022/08/20 03:23:44;;;;;;;36.07;27.40;;;;;;;23.66;81.17;100009.50;3517385;83;33257;-85
2022/08/20 03:28:45;;;;;;;30.57;27.25;;;;;;;23.67;81.13;100020.92;3506955;82;99087;-85
2022/08/20 03:33:46;;;;;;;32.33;26.97;;;;;;;23.65;81.22;100003.73;3504296;83;32452;-84
2022/08/20 03:38:47;;;;;;;34.15;28.00;;;;;;;23.62;81.17;99997.68;3523796;82;99269;-83
2022/08/20 03:43:49;;;;;;;31.82;26.80;;;;;;;23.58;81.25;99990.05;3528201;83;32510;-84
2022/08/20 03:48:52;;;;;;;31.82;25.52;;;;;;;23.54;81.27;99992.24;3521883;82;98929;-84
2022/08/20 03:53:53;;;;;;;34.08;27.77;;;;;;;23.46;81.24;99993.85;3525394;82;32846;-85
2022/08/20 03:58:54;;;;;;;32.40;26.75;;;;;;;23.42;81.37;100005.88;3518601;82;98712;-84
2022/08/20 04:03:57;;;;;;;34.00;27.13;;;;;;;23.41;81.57;100013.37;3530100;82;35490;-85
2022/08/20 04:08:58;;;;;;;31.87;27.15;;;;;;;23.38;81.67;100005.91;3525563;82;99216;-85
2022/08/20 04:13:59;;;;;;;31.65;26.05;;;;;;;23.37;81.80;100009.33;3494009;82;32588;-85
2022/08/20 04:19:02;;;;;;;31.02;25.77;;;;;;;23.35;81.69;100014.65;3519954;82;99161;-84
2022/08/20 04:24:04;;;;;;;31.20;26.68;;;;;;;23.33;81.88;100003.73;3526782;82;27288;-85
2022/08/20 04:29:05;;;;;;;33.33;27.82;;;;;;;23.33;81.93;99991.86;3493363;82;99131;-85
2022/08/20 04:34:06;;;;;;;32.53;26.33;;;;;;;23.32;81.92;99983.28;3529647;82;32533;-85
2022/08/20 04:39:08;;;;;;;30.00;25.35;;;;;;;23.32;82.07;99993.12;3538071;82;98661;-84
2022/08/20 04:44:10;;;;;;;30.77;25.62;;;;;;;23.31;81.92;99987.35;3552148;82;32462;-85
2022/08/20 04:49:11;;;;;;;30.90;27.50;;;;;;;23.29;82.03;99986.27;3524137;82;98895;-84
2022/08/20 04:54:13;;;;;;;35.63;26.90;;;;;;;23.28;82.11;99990.33;3545524;81;32560;-85
2022/08/20 04:59:14;;;;;;;30.30;25.77;;;;;;;23.31;82.35;99996.39;3532629;81;98973;-85
2022/08/20 05:04:15;;;;;;;32.85;26.82;;;;;;;23.31;82.26;99987.97;3527817;81;33272;-85
2022/08/20 05:09:16;;;;;;;33.18;27.95;;;;;;;23.34;82.34;99997.66;3517659;82;98814;-85
2022/08/20 05:14:17;;;;;;;32.40;27.80;;;;;;;23.35;82.29;100006.22;3534089;81;33715;-85
2022/08/20 05:19:18;;;;;;;33.25;26.77;;;;;;;23.37;82.38;100017.75;3543410;80;98961;-84
2022/08/20 05:24:20;;;;;;;34.80;27.25;;;;;;;23.43;82.36;100029.14;3548318;81;32478;-84
2022/08/20 05:29:22;;;;;;;35.15;30.52;;;;;;;23.47;82.37;100033.32;3538095;81;98950;-85
2022/08/20 05:34:24;;;;;;;32.42;27.07;;;;;;;23.55;82.52;100046.41;3514215;83;32743;-84
2022/08/20 05:39:26;;;;;;;33.48;27.42;;;;;;;23.57;82.58;100036.25;3528653;83;99039;-86
2022/08/20 05:44:27;;;;;;;33.48;28.35;;;;;;;23.62;82.45;100029.99;3523560;82;33169;-85
2022/08/20 05:49:28;;;;;;;34.45;29.00;;;;;;;23.69;82.57;100042.89;3522396;82;98825;-86
2022/08/20 05:54:29;;;;;;;33.60;26.73;;;;;;;23.75;82.57;100047.41;3526273;81;33205;-85
2022/08/20 05:59:33;;;;;;;32.75;26.95;;;;;;;23.82;82.40;100048.45;3519638;82;99167;-85
2022/08/20 06:04:34;;;;;;;36.10;30.17;;;;;;;23.88;82.51;100050.83;3522053;82;32518;-86
2022/08/20 06:09:35;;;;;;;35.33;27.20;;;;;;;23.98;82.36;100057.93;3517854;82;99099;-86
2022/08/20 06:14:36;;;;;;;31.70;26.23;;;;;;;24.07;82.19;100059.91;3522456;82;32395;-87
2022/08/20 06:19:38;;;;;;;44.58;34.30;;;;;;;24.16;82.09;100066.28;3521293;82;98989;-87
2022/08/20 06:24:39;;;;;;;31.82;25.82;;;;;;;24.29;82.20;100077.27;3524577;82;32532;-86
2022/08/20 06:29:41;;;;;;;28.62;24.27;;;;;;;24.41;81.92;100086.12;3522466;82;100219;-87
2022/08/20 06:34:42;;;;;;;31.80;26.52;;;;;;;24.45;81.77;100086.09;3526645;81;32471;-87
2022/08/20 06:39:43;;;;;;;29.95;23.75;;;;;;;24.60;81.66;100080.53;3445820;82;98849;-85
2022/08/20 06:44:48;;;;;;;29.85;25.80;;;;;;;24.72;81.14;100078.88;3482065;83;32247;-86
2022/08/20 06:49:48;;;;;;;35.03;26.45;;;;;;;24.81;80.96;100084.44;3471859;83;99157;-86
2022/08/20 06:54:49;;;;;;;33.40;27.45;;;;;;;24.94;80.66;100082.74;3485576;81;32477;-86
2022/08/20 06:59:54;;;;;;;30.60;26.25;;;;;;;25.03;80.38;100081.27;3481270;81;99294;-86
2022/08/20 07:04:55;;;;;;;28.73;24.83;;;;;;;25.10;79.71;100080.87;3481185;82;27464;-86
2022/08/20 07:10:04;;;;;;;32.15;26.23;;;;;;;25.19;79.29;100070.32;3516688;81;98617;-86
2022/08/20 07:15:10;;;;;;;28.98;23.27;;;;;;;25.27;78.96;100068.69;3524426;82;32940;-86
2022/08/20 07:20:14;;;;;;;29.65;24.55;;;;;;;25.33;78.73;100073.78;3524264;82;99070;-86
2022/08/20 07:25:18;;;;;;;34.85;27.58;;;;;;;25.40;78.49;100064.17;3512644;82;35580;-86
2022/08/20 07:35:47;;;;;;;36.15;26.50;;;;;;;25.62;78.98;100073.00;3503863;82;26669;-86
2022/08/20 07:40:47;;;;;;;28.90;24.37;;;;;;;25.84;78.89;100070.53;3507229;82;99116;-86
2022/08/20 07:45:59;;;;;;;31.97;26.55;;;;;;;26.05;78.64;100079.97;3518602;82;28214;-86
2022/08/20 07:51:03;;;;;;;32.05;26.85;;;;;;;26.28;78.49;100092.36;3523604;82;35466;-86
2022/08/20 07:56:09;;;;;;;31.70;26.95;;;;;;;26.57;78.57;100088.03;3517767;83;99181;-86
2022/08/20 08:01:10;;;;;;;29.70;24.18;;;;;;;26.88;77.55;100074.03;3542969;82;28111;-86
2022/08/20 08:06:12;;;;;;;30.35;26.42;;;;;;;27.16;76.89;100080.75;3506497;83;99186;-86
2022/08/20 08:11:14;;;;;;;32.90;26.30;;;;;;;27.32;75.44;100078.14;3531606;83;27376;-85
2022/08/20 08:16:15;;;;;;;29.85;25.72;;;;;;;27.45;75.10;100079.12;3544723;81;99115;-86
2022/08/20 08:21:18;;;;;;;29.80;25.57;;;;;;;27.78;74.76;100078.80;3535790;82;43900;-86
2022/08/20 08:26:20;;;;;;;29.23;24.37;;;;;;;28.15;74.14;100071.72;3519984;82;99316;-86
2022/08/20 08:31:23;;;;;;;29.27;24.70;;;;;;;28.39;73.34;100078.58;3548510;83;40739;-86
2022/08/20 08:36:25;;;;;;;25.72;21.15;;;;;;;28.83;71.79;100082.25;3497494;83;99141;-86
2022/08/20 08:41:35;;;;;;;26.65;22.95;;;;;;;29.21;70.60;100082.36;3521003;82;28240;-86
2022/08/20 08:46:43;;;;;;;27.58;23.55;;;;;;;29.42;69.51;100083.69;3524813;81;99119;-86
2022/08/20 08:51:49;;;;;;;25.30;22.60;;;;;;;29.86;67.19;100087.97;3536018;83;27643;-86
2022/08/20 08:56:51;;;;;;;23.18;20.68;;;;;;;29.80;66.75;100085.02;3526945;82;98780;-86
2022/08/20 09:01:56;;;;;;;25.25;21.52;;;;;;;30.07;66.16;100083.55;3540056;82;35906;-86
2022/08/20 09:06:58;;;;;;;22.90;20.40;;;;;;;30.37;65.58;100085.98;3502541;83;99104;-87
2022/08/20 09:12:17;;;;;;;24.02;19.85;;;;;;;30.52;64.38;100098.45;3498384;83;27620;-85
2022/08/20 09:17:21;;;;;;;23.80;19.98;;;;;;;30.50;63.16;100101.02;3528715;81;99103;-85
2022/08/20 09:22:24;;;;;;;20.60;17.87;;;;;;;30.50;62.93;100104.64;3521833;83;70985;-86
2022/08/20 09:27:26;;;;;;;19.98;17.85;;;;;;;30.50;62.27;100103.86;3525646;81;99244;-86
2022/08/20 09:32:27;;;;;;;22.58;19.12;;;;;;;30.49;62.08;100107.37;3536930;82;26848;-85
2022/08/20 09:37:30;;;;;;;22.77;19.52;;;;;;;30.44;61.86;100102.47;3528995;81;99171;-84
2022/08/20 09:42:34;;;;;;;20.72;18.42;;;;;;;30.44;61.56;100103.11;3543104;82;27395;-85
2022/08/20 09:47:35;;;;;;;20.88;18.62;;;;;;;30.43;61.68;100096.67;3524830;83;98989;-85
2022/08/20 09:52:43;;;;;;;23.12;20.50;;;;;;;30.47;61.46;100101.45;3525702;83;32989;-86
2022/08/20 09:57:45;;;;;;;22.35;19.35;;;;;;;30.48;60.58;100102.98;3519630;82;99209;-85
2022/08/20 10:02:47;;;;;;;19.90;17.73;;;;;;;30.42;60.61;100099.39;3517151;83;27458;-85
2022/08/20 10:07:48;;;;;;;23.20;18.92;;;;;;;30.26;60.25;100094.53;3510327;82;99131;-86
2022/08/20 10:12:49;;;;;;;25.32;21.07;;;;;;;30.19;60.68;100092.20;3529762;82;26380;-86
2022/08/20 10:17:50;;;;;;;21.30;17.92;;;;;;;30.17;60.45;100090.54;3537423;82;99223;-87
2022/08/20 10:22:52;;;;;;;24.02;19.17;;;;;;;30.10;60.27;100088.84;3539191;82;32520;-85
2022/08/20 10:27:54;;;;;;;23.47;20.12;;;;;;;30.02;60.23;100087.84;3524392;81;98818;-86
2022/08/20 10:32:55;;;;;;;20.65;17.57;;;;;;;29.98;60.07;100087.32;3527067;81;27413;-86
2022/08/20 10:37:56;;;;;;;24.47;19.98;;;;;;;29.82;59.98;100088.89;3533488;81;98883;-85
2022/08/20 10:42:57;;;;;;;24.72;18.77;;;;;;;29.78;60.16;100088.37;3515934;82;32519;-86
2022/08/20 10:48:01;;;;;;;23.35;19.37;;;;;;;29.65;60.15;100088.09;3486624;82;99066;-85
2022/08/20 10:53:02;;;;;;;26.67;22.50;;;;;;;29.64;60.10;100085.80;3525297;82;40010;-85
2022/08/20 10:58:08;;;;;;;24.95;20.10;;;;;;;29.44;59.83;100077.50;3531260;82;99539;-86
2022/08/20 11:03:09;;;;;;;22.52;19.87;;;;;;;29.32;60.50;100078.13;3538177;82;32503;-85
2022/08/20 11:08:10;;;;;;;23.25;20.12;;;;;;;29.30;60.34;100078.50;3530866;82;99114;-85
2022/08/20 11:13:11;;;;;;;24.98;20.43;;;;;;;29.22;60.61;100071.17;3522010;83;32519;-85
2022/08/20 11:18:13;;;;;;;22.45;19.37;;;;;;;29.36;61.25;100079.31;3532459;82;99217;-86
2022/08/20 11:23:14;;;;;;;23.27;20.20;;;;;;;29.45;61.05;100079.05;3535723;83;33370;-86
2022/08/20 11:28:16;;;;;;;26.02;21.40;;;;;;;29.50;60.89;100086.16;3524965;82;99257;-86
2022/08/20 11:33:17;;;;;;;22.65;19.92;;;;;;;29.48;61.01;100078.03;3542187;81;41696;-85
2022/08/20 11:38:19;;;;;;;28.45;20.68;;;;;;;29.58;61.28;100079.36;3519776;82;99338;-86
2022/08/20 11:43:20;;;;;;;22.60;20.02;;;;;;;29.66;60.76;100082.58;3539743;82;32546;-86
2022/08/20 11:48:21;;;;;;;24.85;20.45;;;;;;;29.70;60.93;100088.75;3519188;81;98849;-85
2022/08/20 11:53:22;;;;;;;23.20;19.05;;;;;;;29.73;60.21;100095.45;3531410;83;33165;-85
2022/08/20 11:58:23;;;;;;;20.85;18.60;;;;;;;29.67;60.16;100094.68;3523550;81;99513;-86
2022/08/20 12:03:24;;;;;;;22.60;19.52;;;;;;;29.54;60.26;100092.35;3535971;83;32997;-85
2022/08/20 12:08:25;;;;;;;27.45;21.95;;;;;;;29.55;60.46;100084.00;3523845;81;99086;-85
2022/08/20 12:13:31;;;;;;;21.77;18.80;;;;;;;29.60;60.29;100079.60;3510817;82;32491;-86
2022/08/20 12:18:32;;;;;;;25.12;20.80;;;;;;;29.60;59.96;100073.93;3518323;82;99122;-85
2022/08/20 12:23:33;;;;;;;23.05;19.62;;;;;;;29.45;61.57;100071.95;3530138;83;33745;-85
2022/08/20 12:28:34;;;;;;;24.07;21.48;;;;;;;29.44;62.19;100064.74;3524078;82;99155;-86
2022/08/20 12:33:35;;;;;;;25.08;19.73;;;;;;;29.43;63.27;100072.46;3516716;81;42130;-85
2022/08/20 12:38:36;;;;;;;22.30;18.92;;;;;;;29.30;63.48;100069.38;3515465;81;98845;-87
2022/08/20 12:43:38;;;;;;;22.67;20.10;;;;;;;29.18;63.46;100062.14;3530358;82;45072;-87
2022/08/20 12:48:39;;;;;;;23.60;20.48;;;;;;;29.15;63.99;100056.07;3512882;82;98865;-86
2022/08/20 12:53:40;;;;;;;26.35;21.73;;;;;;;29.15;64.63;100048.23;3537520;82;32527;-86
2022/08/20 12:58:41;;;;;;;26.90;22.58;;;;;;;29.27;65.58;100042.70;3530115;82;99179;-86
2022/08/20 13:03:42;;;;;;;26.80;22.30;;;;;;;29.28;65.86;100037.16;3525108;82;32435;-86
2022/08/20 13:08:43;;;;;;;27.77;23.60;;;;;;;29.41;65.79;100028.90;3524274;82;99054;-86
2022/08/20 13:13:46;;;;;;;27.42;22.90;;;;;;;29.63;65.59;100028.92;3534665;81;32399;-86
2022/08/20 13:18:47;;;;;;;26.25;23.30;;;;;;;29.81;64.87;100019.23;3520756;82;99173;-85
2022/08/20 13:23:48;;;;;;;23.95;21.40;;;;;;;30.07;65.06;100019.69;3538934;82;32430;-86
2022/08/20 13:28:49;;;;;;;24.67;21.10;;;;;;;30.34;64.32;100012.42;3523448;82;99043;-86
2022/08/20 13:33:50;;;;;;;24.65;20.48;;;;;;;30.56;62.04;100013.75;3527679;82;32572;-85
2022/08/20 13:38:51;;;;;;;25.62;21.75;;;;;;;30.69;62.23;100021.05;3494197;83;99076;-85
2022/08/20 13:43:52;;;;;;;23.67;20.12;;;;;;;30.87;61.44;100030.37;3524364;83;33103;-86
2022/08/20 13:48:54;;;;;;;20.68;18.48;;;;;;;31.02;61.02;100030.16;3495204;83;99092;-85
2022/08/20 13:53:55;;;;;;;20.32;18.23;;;;;;;30.75;60.00;100025.42;3516779;82;33027;-85
2022/08/20 13:58:58;;;;;;;21.57;17.73;;;;;;;30.47;59.27;99999.83;3524570;82;99142;-86
2022/08/20 14:03:59;;;;;;;17.57;15.23;;;;;;;30.21;59.77;100024.34;3517986;82;26425;-86
2022/08/20 14:09:01;;;;;;;20.45;14.63;;;;;;;30.06;59.70;100025.88;3519799;81;99162;-85
2022/08/20 14:14:02;;;;;;;18.45;14.78;;;;;;;29.84;59.77;100016.78;3524793;81;29406;-87
2022/08/20 14:19:03;;;;;;;16.40;13.45;;;;;;;29.61;60.09;100008.81;3521926;82;99100;-87
2022/08/20 14:24:04;;;;;;;17.10;14.05;;;;;;;29.38;60.29;100014.34;3520606;82;26610;-87
2022/08/20 14:29:05;;;;;;;17.25;13.00;;;;;;;29.14;60.69;100007.77;3514096;81;98853;-87
2022/08/20 14:34:06;;;;;;;16.52;12.53;;;;;;;29.03;61.14;100012.63;3534367;81;26429;-87
2022/08/20 14:39:07;;;;;;;15.38;11.75;;;;;;;28.83;61.37;100005.10;3476305;83;99150;-87
2022/08/20 14:44:08;;;;;;;18.12;12.07;;;;;;;28.68;61.58;100007.41;3527020;82;47024;-85
2022/08/20 14:49:10;;;;;;;16.40;12.37;;;;;;;28.44;61.85;100007.71;3509558;83;98915;-87
2022/08/20 14:54:11;;;;;;;18.17;12.78;;;;;;;28.21;62.36;100014.50;3538686;82;26166;-87
2022/08/20 14:59:12;;;;;;;16.87;13.22;;;;;;;28.04;62.92;100013.65;3529851;81;98887;-87
2022/08/20 15:04:13;;;;;;;16.70;13.70;;;;;;;27.86;63.37;100000.70;3539130;82;25793;-87
2022/08/20 15:09:14;;;;;;;16.80;13.25;;;;;;;27.74;63.74;100008.94;3522248;82;98861;-87
2022/08/20 15:14:15;;;;;;;14.78;11.57;;;;;;;27.64;64.08;100009.64;3529724;83;32348;-86
2022/08/20 15:19:16;;;;;;;16.33;12.53;;;;;;;27.58;64.21;100032.87;3496845;83;99094;-86
2022/08/20 15:24:18;;;;;;;14.53;10.68;;;;;;;27.49;64.52;100051.41;3517033;82;25942;-86
2022/08/20 15:29:19;;;;;;;10.32;5.65;;;;;;;27.31;64.90;100041.89;3531017;82;99141;-87
2022/08/20 15:34:20;;;;;;;10.65;3.70;;;;;;;26.89;64.59;100076.99;3535551;81;36544;-86
2022/08/20 15:39:21;;;;;;;7.08;2.90;;;;;;;26.54;65.15;100077.06;3503717;82;98815;-87
2022/08/20 15:44:22;;;;;;;4.55;2.00;;;;;;;26.15;65.67;100070.78;3517800;82;33459;-87
2022/08/20 15:49:24;;;;;;;6.95;3.85;;;;;;;25.80;65.85;100038.31;3515492;82;98415;-86
2022/08/20 15:54:26;;;;;;;9.55;4.75;;;;;;;25.55;66.19;100049.45;3502574;81;33266;-86
2022/08/20 15:59:48;;;;;;;8.85;3.75;;;;;;;25.32;66.87;100038.43;3505581;81;98311;-86
2022/08/20 16:05:22;;;;;;;9.73;4.15;;;;;;;25.10;66.95;100054.13;3514860;83;38269;-86
2022/08/20 16:10:31;;;;;;;8.53;4.72;;;;;;;24.97;67.35;100081.17;3543063;82;98517;-86
2022/08/20 16:15:37;;;;;;;17.50;7.60;;;;;;;24.93;67.69;100092.45;3522906;83;33295;-85
2022/08/20 16:20:49;;;;;;;12.75;6.83;;;;;;;24.70;68.62;100119.41;3471583;83;98803;-87
2022/08/20 16:26:27;;;;;;;13.03;7.22;;;;;;;24.16;70.73;100112.68;3484819;83;27902;-85
2022/08/20 16:31:34;;;;;;;19.98;13.00;;;;;;;23.93;72.27;100104.20;3525542;82;33276;-84
2022/08/20 16:36:44;;;;;;;26.95;13.72;;;;;;;23.87;73.58;100070.94;3518631;82;99002;-85
2022/08/20 16:41:50;;;;;;;25.08;16.37;;;;;;;23.79;74.90;100087.98;3531615;82;25844;-85
2022/08/20 16:47:00;;;;;;;19.37;14.18;;;;;;;23.74;76.13;100099.25;3517427;82;98918;-85
2022/08/20 16:52:01;;;;;;;19.00;13.18;;;;;;;23.66;77.36;100135.95;3491857;82;33235;-85
2022/08/20 16:57:05;;;;;;;17.12;11.97;;;;;;;23.64;77.77;100172.17;3436482;84;99247;-86
2022/08/20 17:02:12;;;;;;;16.77;11.57;;;;;;;23.62;77.81;100189.35;3438262;82;51829;-87
2022/08/20 17:07:13;;;;;;;18.42;12.15;;;;;;;23.67;77.87;100178.27;3398914;83;99279;-88
2022/08/20 17:12:21;;;;;;;17.75;11.25;;;;;;;23.70;78.34;100165.31;3400476;85;50926;-90
2022/08/20 17:17:28;;;;;;;18.32;11.10;;;;;;;23.66;79.37;100178.73;3443890;83;99206;-90
2022/08/20 17:22:30;;;;;;;14.18;9.60;;;;;;;23.59;80.32;100186.09;3480989;83;33226;-90
2022/08/20 17:27:39;;;;;;;13.40;8.15;;;;;;;23.56;80.38;100179.39;3470567;82;98961;-88
2022/08/20 17:32:59;;;;;;;11.93;7.62;;;;;;;23.58;80.39;100180.30;3376859;84;34434;-88
2022/08/20 17:38:02;;;;;;;11.30;6.75;;;;;;;23.58;80.73;100171.88;3389507;84;98831;-87
2022/08/20 17:43:08;;;;;;;12.70;8.35;;;;;;;23.57;80.90;100161.28;3408550;86;33909;-87
2022/08/20 17:48:16;;;;;;;11.80;7.60;;;;;;;23.55;81.32;100147.55;3470395;83;98945;-85
2022/08/20 17:53:25;;;;;;;11.10;6.05;;;;;;;23.46;81.80;100158.17;3442985;84;33238;-85
2022/08/20 17:58:43;;;;;;;10.95;6.75;;;;;;;23.42;81.88;100165.98;3467588;83;99095;-85
2022/08/20 18:03:44;;;;;;;9.88;6.45;;;;;;;23.34;82.36;100180.20;3452522;83;33260;-84
2022/08/20 18:09:15;;;;;;;10.68;7.33;;;;;;;23.30;82.32;100179.57;3482372;82;98895;-85
2022/08/20 18:14:43;;;;;;;10.15;6.53;;;;;;;23.29;82.44;100182.23;3451458;83;26060;-86
2022/08/20 18:20:37;;;;;;;11.38;7.90;;;;;;;23.26;82.65;100185.20;3454353;83;98923;-87
2022/08/20 18:25:52;;;;;;;9.03;6.25;;;;;;;23.19;82.99;100194.70;3472751;83;25765;-87
2022/08/20 18:30:58;;;;;;;9.93;6.73;;;;;;;23.11;83.22;100210.90;3478045;83;98100;-88
2022/08/20 18:36:10;;;;;;;10.85;5.95;;;;;;;23.06;83.35;100224.91;3475199;82;98801;-88
2022/08/20 18:41:31;;;;;;;9.13;6.28;;;;;;;23.01;83.51;100241.61;3501941;84;33875;-86
2022/08/20 18:46:33;;;;;;;11.03;6.50;;;;;;;22.96;83.72;100237.40;3535157;82;98954;-85
2022/08/20 18:51:41;;;;;;;10.13;6.33;;;;;;;22.93;83.99;100224.89;3508285;81;1765172;-83
2022/08/20 18:56:43;;;;;;;9.18;6.00;;;;;;;22.90;83.97;100221.62;3536399;81;99148;-83
2022/08/20 19:01:47;;;;;;;12.93;6.42;;;;;;;22.84;84.16;100224.25;3541500;81;33297;-84
2022/08/20 19:06:55;;;;;;;10.93;6.13;;;;;;;22.84;84.43;100223.49;3520949;82;99138;-85
2022/08/20 19:12:10;;;;;;;9.00;5.70;;;;;;;22.80;84.51;100198.39;3540469;81;33742;-84
2022/08/20 19:17:36;;;;;;;10.27;6.87;;;;;;;22.76;84.54;100206.78;3537537;81;98538;-86
2022/08/20 19:22:39;;;;;;;;;;;;;;;22.71;84.83;100198.97;3532525;83;32700;-87
2022/08/20 19:27:40;;;;;;;9.63;6.25;;;;;;;22.66;86.20;100201.02;3522700;82;85069;-87
2022/08/20 19:32:46;;;;;;;10.00;6.10;;;;;;;22.62;85.10;100205.98;3519288;83;31428;-88
2022/08/20 19:37:47;;;;;;;13.18;8.58;;;;;;;22.60;85.38;100210.66;3519175;82;98735;-86
2022/08/20 19:42:49;;;;;;;11.13;7.57;;;;;;;22.55;85.66;100204.89;3536768;81;80407;-86
2022/08/20 19:48:09;;;;;;;9.48;6.42;;;;;;;22.48;85.83;100200.34;3488969;82;99172;-86
2022/08/20 19:53:27;;;;;;;11.10;6.92;;;;;;;22.42;86.20;100202.16;3505392;83;34322;-86
2022/08/20 19:58:30;;;;;;;10.38;6.65;;;;;;;22.43;86.10;100187.50;3508185;82;98688;-86
2022/08/20 20:03:37;;;;;;;11.48;6.40;;;;;;;22.36;86.43;100177.38;3507809;83;33783;-87
2022/08/20 20:08:46;;;;;;;12.40;6.50;;;;;;;22.34;86.51;100179.84;3479319;82;98930;-87
2022/08/20 20:13:47;;;;;;;11.48;6.75;;;;;;;22.34;86.79;100181.25;3493369;83;34429;-87
2022/08/20 20:18:48;;;;;;;11.03;6.43;;;;;;;22.34;86.77;100180.48;3500545;82;98932;-87
2022/08/20 20:23:58;;;;;;;10.38;6.70;;;;;;;22.32;86.80;100172.53;3501891;83;32699;-87
2022/08/20 20:29:10;;;;;;;9.43;6.80;;;;;;;22.26;87.15;100167.98;3492600;82;99074;-88
2022/08/20 20:34:14;;;;;;;10.82;7.05;;;;;;;22.18;87.78;100182.14;3499995;82;33274;-87
2022/08/20 20:39:32;;;;;;;10.88;7.90;;;;;;;22.24;87.88;100188.70;3488673;83;98633;-89
2022/08/20 20:44:38;;;;;;;12.98;7.53;;;;;;;22.26;87.81;100190.41;3515070;83;72150;-87
2022/08/20 20:49:56;;;;;;;9.45;6.15;;;;;;;22.21;87.99;100177.78;3519277;82;98854;-88
2022/08/20 20:55:15;;;;;;;9.95;6.95;;;;;;;22.20;87.94;100168.42;3523457;83;33697;-87
2022/08/20 21:00:20;;;;;;;9.80;6.80;;;;;;;22.17;87.99;100160.95;3526647;82;98578;-88
2022/08/20 21:05:25;;;;;;;10.53;7.45;;;;;;;22.15;88.10;100164.83;3535619;83;30133;-86
2022/08/20 21:10:31;;;;;;;11.00;7.35;;;;;;;22.16;88.30;100163.58;3500413;83;99041;-88
2022/08/20 21:15:33;;;;;;;11.68;7.08;;;;;;;22.10;88.27;100169.63;3530457;82;30367;-87
2022/08/20 21:20:34;;;;;;;9.40;6.53;;;;;;;22.05;88.45;100161.22;3530303;82;98835;-88
2022/08/20 21:25:36;;;;;;;9.78;5.90;;;;;;;22.03;88.51;100166.52;3537248;83;40816;-87
2022/08/20 21:30:37;;;;;;;9.50;6.20;;;;;;;21.98;88.79;100155.11;3530111;82;98358;-88
2022/08/20 21:35:38;;;;;;;10.90;7.60;;;;;;;21.95;88.93;100161.62;3503160;82;30474;-88
2022/08/20 21:40:39;;;;;;;12.58;8.05;;;;;;;21.92;89.17;100168.16;3490663;83;98802;-90
2022/08/20 21:45:40;;;;;;;11.90;6.83;;;;;;;21.89;89.27;100173.27;3509453;83;46693;-89
2022/08/20 21:50:42;;;;;;;10.93;6.73;;;;;;;21.83;89.53;100170.91;3519967;81;98792;-89
2022/08/20 21:55:45;;;;;;;11.03;7.63;;;;;;;21.77;89.59;100170.73;3531474;81;33309;-90
2022/08/20 22:01:18;;;;;;;;;;;;;;;;;;;;;
2022/08/20 22:06:15;;;;;;;11.75;7.87;;;;;;;21.70;89.72;100169.59;3498143;82;2347063;-90
2022/08/20 22:11:29;;;;;;;12.25;8.25;;;;;;;21.65;89.97;100162.37;3422395;81;5448779;-92
2022/08/20 22:16:42;;;;;;;13.68;8.85;;;;;;;21.64;89.92;100158.79;3368882;83;4962115;-91
2022/08/20 22:21:56;;;;;;;12.93;9.50;;;;;;;21.64;89.86;100167.83;3407831;83;4625835;-93
2022/08/20 22:26:54;;;;;;;11.78;8.13;;;;;;;21.58;89.84;100169.02;3399048;81;5444837;-90
2022/08/20 22:32:21;;;;;;;15.75;9.95;;;;;;;21.59;89.76;100169.18;3378073;82;5517684;-91
2022/08/20 22:37:19;;;;;;;15.78;9.75;;;;;;;21.57;89.86;100180.07;3443228;81;5342908;-91
2022/08/20 22:42:34;;;;;;;13.90;9.05;;;;;;;21.59;89.73;100185.22;3351723;83;5212859;-92
2022/08/20 22:48:15;;;;;;;17.30;9.40;;;;;;;21.60;89.72;100190.98;3220951;85;5471329;-91
2022/08/20 22:53:31;;;;;;;;;;;;;;;;;;;;;
2022/08/20 22:58:25;;;;;;;12.55;7.97;;;;;;;21.58;89.46;100208.88;3331591;83;3000215;-90
2022/08/20 23:03:31;;;;;;;12.47;8.43;;;;;;;21.51;89.31;100202.11;3272341;87;5129598;-94
2022/08/20 23:08:33;;;;;;;12.65;8.30;;;;;;;21.49;89.31;100201.19;3230271;87;5086911;-92
2022/08/20 23:13:43;;;;;;;11.53;8.07;;;;;;;21.46;89.31;100204.89;3354029;84;5197489;-92
2022/08/20 23:18:44;;;;;;;12.15;7.70;;;;;;;21.39;89.22;100214.95;3460052;83;99471;-92
2022/08/20 23:23:52;;;;;;;10.32;6.83;;;;;;;21.35;89.11;100212.89;3466647;84;32523;-91